Time;durP1;ratioP1;P1;durP2;ratioP2;P2;SDS_P1;SDS_P2;PMS_P1;PMS_P2;Temp;Humidity;BMP_temperature;BMP_pressure;BME280_temperature;BME280_humidity;BME280_pressure;Samples;Min_cycle;Max_cycle;Signal;HPM_P1;HPM_P2
2021/07/31 00:01:38;;;;;;;6.22;1.77;;;17.10;88.30;;;;;;4848309;29;20137;-93
2021/07/31 00:04:07;;;;;;;8.20;1.85;;;17.10;88.40;;;;;;4843009;29;20046;-92
2021/07/31 00:06:32;;;;;;;6.05;1.70;;;17.00;88.40;;;;;;4843073;29;20050;-90
2021/07/31 00:08:59;;;;;;;7.15;1.63;;;17.00;89.10;;;;;;4843073;29;20057;-92
2021/07/31 00:11:26;;;;;;;8.40;2.17;;;17.00;89.10;;;;;;4851792;29;20069;-88
2021/07/31 00:13:51;;;;;;;7.50;1.90;;;16.90;89.10;;;;;;4860857;29;20498;-90
2021/07/31 00:16:17;;;;;;;6.57;1.80;;;17.00;89.10;;;;;;4860325;29;20064;-94
2021/07/31 00:18:43;;;;;;;9.55;1.98;;;17.00;89.50;;;;;;4854456;29;20482;-91
2021/07/31 00:21:09;;;;;;;7.85;2.00;;;16.90;89.30;;;;;;4842914;29;20061;-92
2021/07/31 00:23:38;;;;;;;6.25;1.52;;;16.90;89.40;;;;;;4842924;29;20414;-93
2021/07/31 00:26:03;;;;;;;6.05;1.70;;;16.90;89.50;;;;;;4842024;29;20097;-90
2021/07/31 00:28:29;;;;;;;11.05;2.55;;;16.90;89.60;;;;;;4842784;29;20472;-92
2021/07/31 00:30:55;;;;;;;6.18;1.50;;;16.90;90.10;;;;;;4842505;29;20410;-92
2021/07/31 00:33:21;;;;;;;9.15;2.00;;;16.90;89.90;;;;;;4848608;29;20052;-89
2021/07/31 00:35:47;;;;;;;5.88;1.52;;;16.90;89.70;;;;;;4861599;29;20502;-89
2021/07/31 00:38:12;;;;;;;9.05;1.98;;;16.90;89.60;;;;;;4861277;29;20046;-90
2021/07/31 00:40:38;;;;;;;6.95;1.88;;;16.90;89.30;;;;;;4860151;29;20057;-91
2021/07/31 00:43:08;;;;;;;8.50;2.00;;;16.90;89.70;;;;;;4860495;29;20109;-93
2021/07/31 00:45:35;;;;;;;8.07;2.15;;;16.80;89.70;;;;;;4861086;29;20049;-89
2021/07/31 00:48:01;;;;;;;10.43;2.63;;;16.80;89.70;;;;;;4860126;29;20128;-88
2021/07/31 00:50:28;;;;;;;11.43;2.40;;;16.80;89.90;;;;;;4860382;29;20065;-89
2021/07/31 00:52:54;;;;;;;8.70;2.28;;;16.80;89.90;;;;;;4859201;29;20057;-90
2021/07/31 00:55:22;;;;;;;8.32;2.35;;;16.80;90.00;;;;;;4860256;29;20065;-89
2021/07/31 00:57:49;;;;;;;8.93;2.35;;;16.80;90.10;;;;;;4859723;29;20082;-90
2021/07/31 01:00:15;;;;;;;6.70;2.10;;;16.80;90.20;;;;;;4859838;29;20917;-88
2021/07/31 01:02:41;;;;;;;9.80;2.78;;;16.80;90.30;;;;;;4860606;29;20144;-89
2021/07/31 01:05:07;;;;;;;7.65;2.38;;;16.80;90.30;;;;;;4860271;29;20049;-86
2021/07/31 01:07:34;;;;;;;11.02;2.83;;;16.70;90.40;;;;;;4859672;29;20062;-89
2021/07/31 01:10:00;;;;;;;8.65;2.83;;;16.70;90.40;;;;;;4859760;29;20093;-88
2021/07/31 01:12:26;;;;;;;8.00;2.45;;;16.70;90.40;;;;;;4860280;29;20057;-89
2021/07/31 01:14:52;;;;;;;11.68;2.90;;;16.70;90.60;;;;;;4859724;29;20521;-89
2021/07/31 01:17:18;;;;;;;8.95;2.90;;;16.60;90.50;;;;;;4860148;29;20054;-88
2021/07/31 01:19:44;;;;;;;8.85;2.83;;;16.60;90.60;;;;;;4860323;29;20479;-89
2021/07/31 01:22:09;;;;;;;10.60;2.78;;;16.60;90.70;;;;;;4859445;29;20109;-90
2021/07/31 01:24:35;;;;;;;15.07;3.60;;;16.60;90.80;;;;;;4860267;29;20399;-88
2021/07/31 01:27:01;;;;;;;10.00;3.10;;;16.50;90.90;;;;;;4858488;29;20050;-89
2021/07/31 01:29:27;;;;;;;12.43;3.50;;;16.50;91.00;;;;;;4861283;29;20499;-89
2021/07/31 01:31:53;;;;;;;9.48;3.00;;;16.50;91.00;;;;;;4863816;29;20053;-88
2021/07/31 01:34:19;;;;;;;9.18;3.00;;;16.50;91.00;;;;;;4863689;29;20054;-89
2021/07/31 01:36:45;;;;;;;11.32;3.08;;;16.50;91.10;;;;;;4862891;29;20448;-89
2021/07/31 01:39:10;;;;;;;9.57;3.08;;;16.40;91.10;;;;;;4863272;29;20049;-90
2021/07/31 01:41:36;;;;;;;9.20;2.92;;;16.40;91.20;;;;;;4863065;29;20057;-88
2021/07/31 01:44:02;;;;;;;12.25;3.63;;;16.50;91.30;;;;;;4862661;29;20139;-87
2021/07/31 01:46:27;;;;;;;9.60;3.10;;;16.40;91.60;;;;;;4863603;29;20144;-88
2021/07/31 01:48:53;;;;;;;9.95;3.22;;;16.40;91.20;;;;;;4863481;29;20053;-89
2021/07/31 01:51:19;;;;;;;10.60;3.47;;;16.40;91.20;;;;;;4862382;29;20415;-89
2021/07/31 01:53:45;;;;;;;10.90;3.72;;;16.40;91.20;;;;;;4863365;29;20053;-89
2021/07/31 01:56:12;;;;;;;11.15;3.90;;;16.40;91.30;;;;;;4862280;29;20578;-87
2021/07/31 01:58:37;;;;;;;9.75;3.65;;;16.40;91.30;;;;;;4863246;29;20077;-88
2021/07/31 02:01:03;;;;;;;13.45;4.00;;;16.40;91.40;;;;;;4863007;29;20077;-87
2021/07/31 02:03:29;;;;;;;12.30;3.60;;;16.40;91.40;;;;;;4862464;29;20045;-89
2021/07/31 02:05:55;;;;;;;9.63;3.38;;;16.30;91.50;;;;;;4860952;29;20061;-87
2021/07/31 02:08:21;;;;;;;11.38;3.90;;;16.30;91.60;;;;;;4862576;29;20056;-87
2021/07/31 02:10:47;;;;;;;9.77;3.63;;;16.30;91.70;;;;;;4862752;29;20097;-88
2021/07/31 02:13:13;;;;;;;11.82;4.00;;;16.30;91.70;;;;;;4862935;29;20109;-89
2021/07/31 02:15:42;;;;;;;12.63;3.65;;;16.30;91.70;;;;;;4854789;29;20054;-88
2021/07/31 02:18:09;;;;;;;11.35;3.83;;;16.30;91.90;;;;;;4843734;29;20054;-88
2021/07/31 02:20:35;;;;;;;11.38;4.45;;;16.30;91.90;;;;;;4844572;29;20133;-88
2021/07/31 02:23:02;;;;;;;11.93;3.92;;;16.30;91.90;;;;;;4844033;29;20110;-87
2021/07/31 02:25:27;;;;;;;10.25;4.15;;;16.30;92.00;;;;;;4843711;29;20057;-87
2021/07/31 02:27:53;;;;;;;11.80;4.28;;;16.30;92.00;;;;;;4860846;29;20053;-87
2021/07/31 02:30:19;;;;;;;11.23;4.07;;;16.20;92.10;;;;;;4862608;29;20050;-89
2021/07/31 02:32:44;;;;;;;13.52;4.32;;;16.20;92.10;;;;;;4862283;29;20057;-89
2021/07/31 02:35:12;;;;;;;11.13;3.90;;;16.20;92.10;;;;;;4862345;29;20498;-90
2021/07/31 02:37:38;;;;;;;10.13;3.63;;;16.20;92.30;;;;;;4862734;29;20085;-89
2021/07/31 02:40:04;;;;;;;11.63;4.00;;;16.20;92.30;;;;;;4861484;29;20069;-89
2021/07/31 02:42:31;;;;;;;9.30;4.20;;;16.20;92.30;;;;;;4862556;29;20057;-86
2021/07/31 02:44:56;;;;;;;13.10;4.40;;;16.20;92.30;;;;;;4862547;29;20049;-89
2021/07/31 02:47:22;;;;;;;9.50;4.03;;;16.20;92.40;;;;;;4861471;29;20049;-89
2021/07/31 02:49:48;;;;;;;11.50;4.32;;;16.20;92.40;;;;;;4858105;29;20133;-90
2021/07/31 02:52:14;;;;;;;11.23;4.80;;;16.20;92.40;;;;;;4855427;29;20521;-89
2021/07/31 02:54:39;;;;;;;12.82;4.75;;;16.20;92.50;;;;;;4847774;29;20080;-89
2021/07/31 02:57:05;;;;;;;9.43;4.70;;;16.20;92.50;;;;;;4847061;29;20513;-86
2021/07/31 02:59:31;;;;;;;11.50;4.20;;;16.10;92.60;;;;;;4843164;29;20057;-87
2021/07/31 03:01:57;;;;;;;10.68;4.65;;;16.10;92.60;;;;;;4843694;29;20050;-87
2021/07/31 03:04:23;;;;;;;12.45;4.63;;;16.10;92.70;;;;;;4843433;29;20056;-86
2021/07/31 03:06:49;;;;;;;12.40;4.38;;;16.10;92.80;;;;;;4842687;29;20111;-86
2021/07/31 03:09:15;;;;;;;12.13;4.30;;;16.10;92.80;;;;;;4843411;29;20053;-86
2021/07/31 03:11:40;;;;;;;11.35;4.70;;;16.10;92.90;;;;;;4843655;29;20061;-87
2021/07/31 03:14:06;;;;;;;11.65;4.80;;;16.10;93.30;;;;;;4842684;29;20114;-87
2021/07/31 03:16:32;;;;;;;13.68;4.63;;;16.10;93.00;;;;;;4843551;29;20058;-86
2021/07/31 03:18:58;;;;;;;12.68;4.47;;;16.10;93.00;;;;;;4843152;29;20127;-87
2021/07/31 03:21:24;;;;;;;10.63;5.03;;;16.10;93.00;;;;;;4842599;29;20050;-88
2021/07/31 03:23:50;;;;;;;10.88;4.38;;;16.10;93.00;;;;;;4843407;29;20061;-86
2021/07/31 03:26:16;;;;;;;13.00;4.40;;;16.10;93.00;;;;;;4846211;29;20057;-87
2021/07/31 03:28:41;;;;;;;12.98;4.60;;;16.10;93.00;;;;;;4860059;29;20509;-87
2021/07/31 03:31:07;;;;;;;14.65;5.15;;;16.10;93.00;;;;;;4861209;29;20463;-86
2021/07/31 03:33:33;;;;;;;11.55;4.75;;;16.10;93.00;;;;;;4861457;29;20487;-88
2021/07/31 03:35:59;;;;;;;10.65;4.85;;;16.10;93.10;;;;;;4859944;29;20442;-87
2021/07/31 03:38:29;;;;;;;14.55;5.30;;;16.10;93.20;;;;;;4861621;29;20050;-87
2021/07/31 03:40:54;;;;;;;10.85;5.00;;;16.10;93.20;;;;;;4861505;29;20482;-87
2021/07/31 03:43:20;;;;;;;12.18;4.90;;;16.10;93.20;;;;;;4860460;29;20137;-85
2021/07/31 03:45:52;;;;;;;10.23;4.32;;;16.00;93.20;;;;;;4861560;29;20054;-86
2021/07/31 03:48:18;;;;;;;12.73;4.82;;;16.10;93.20;;;;;;4861170;29;20060;-86
2021/07/31 03:50:43;;;;;;;11.95;4.47;;;16.10;93.30;;;;;;4859706;29;20057;-86
2021/07/31 03:53:09;;;;;;;13.95;4.85;;;16.10;93.30;;;;;;4858933;29;20129;-87
2021/07/31 03:55:35;;;;;;;10.48;4.60;;;16.10;93.40;;;;;;4861350;29;20501;-87
2021/07/31 03:58:01;;;;;;;13.88;5.07;;;16.10;93.30;;;;;;4859718;29;20470;-87
2021/07/31 04:00:28;;;;;;;10.60;4.80;;;16.10;93.40;;;;;;4861104;29;20053;-86
2021/07/31 04:02:54;;;;;;;11.48;4.18;;;16.10;93.40;;;;;;4860212;29;20105;-87
2021/07/31 04:05:19;;;;;;;11.18;4.80;;;16.10;93.40;;;;;;4860542;29;20516;-87
2021/07/31 04:07:47;;;;;;;15.02;4.82;;;16.10;93.40;;;;;;4861250;29;20140;-88
2021/07/31 04:10:13;;;;;;;9.88;4.75;;;16.10;93.40;;;;;;4859563;29;20132;-87
2021/07/31 04:12:38;;;;;;;10.75;4.70;;;16.10;93.50;;;;;;4856489;29;20487;-88
2021/07/31 04:15:05;;;;;;;12.90;4.60;;;16.10;93.50;;;;;;4842240;29;20463;-86
2021/07/31 04:17:33;;;;;;;11.23;4.85;;;16.10;93.50;;;;;;4841667;29;20050;-87
2021/07/31 04:19:58;;;;;;;11.27;5.10;;;16.10;93.50;;;;;;4842003;29;20106;-88
2021/07/31 04:22:24;;;;;;;12.98;5.18;;;16.10;93.50;;;;;;4843372;29;20057;-87
2021/07/31 04:24:52;;;;;;;10.15;4.68;;;16.20;93.60;;;;;;4841982;29;20077;-88
2021/07/31 04:27:18;;;;;;;9.98;4.15;;;16.10;93.50;;;;;;4842235;29;20052;-87
2021/07/31 04:29:43;;;;;;;9.18;4.15;;;16.10;93.40;;;;;;4842594;29;20050;-86
2021/07/31 04:32:09;;;;;;;9.63;4.55;;;16.20;93.40;;;;;;4841245;29;20136;-87
2021/07/31 04:34:35;;;;;;;13.30;5.25;;;16.20;93.40;;;;;;4842100;29;20073;-85
2021/07/31 04:37:00;;;;;;;10.27;4.18;;;16.20;93.50;;;;;;4854620;29;20557;-87
2021/07/31 04:39:26;;;;;;;13.27;4.82;;;16.20;93.40;;;;;;4860152;29;20049;-85
2021/07/31 04:41:52;;;;;;;9.52;4.25;;;16.20;93.50;;;;;;4860450;29;20136;-85
2021/07/31 04:44:17;;;;;;;11.95;4.68;;;16.20;93.50;;;;;;4860422;29;20057;-84
2021/07/31 04:46:43;;;;;;;10.05;4.07;;;16.20;93.50;;;;;;4859631;29;20419;-85
2021/07/31 04:49:09;;;;;;;13.57;4.47;;;16.20;93.50;;;;;;4860096;29;20058;-85
2021/07/31 04:51:35;;;;;;;11.50;4.25;;;16.20;93.40;;;;;;4860520;29;20088;-85
2021/07/31 04:54:00;;;;;;;10.52;4.32;;;16.20;93.40;;;;;;4859340;29;20054;-85
2021/07/31 04:56:26;;;;;;;13.73;4.45;;;16.20;93.50;;;;;;4860297;29;20049;-87
2021/07/31 04:58:52;;;;;;;11.70;4.50;;;16.20;93.50;;;;;;4860441;29;20540;-86
2021/07/31 05:01:17;;;;;;;11.95;4.22;;;16.20;93.50;;;;;;4857571;29;20068;-86
2021/07/31 05:03:43;;;;;;;15.27;4.70;;;16.20;93.50;;;;;;4863012;29;20375;-85
2021/07/31 05:06:08;;;;;;;14.10;4.20;;;16.20;93.60;;;;;;4863315;29;20084;-85
2021/07/31 05:08:34;;;;;;;10.85;3.80;;;16.20;93.60;;;;;;4864213;29;20061;-86
2021/07/31 05:11:06;;;;;;;11.10;3.72;;;16.30;93.60;;;;;;4863728;29;20136;-86
2021/07/31 05:13:32;;;;;;;13.35;4.20;;;16.30;93.50;;;;;;4863198;29;20122;-85
2021/07/31 05:15:58;;;;;;;13.40;3.80;;;16.20;93.60;;;;;;4863565;29;20084;-86
2021/07/31 05:18:24;;;;;;;15.52;4.00;;;16.30;93.60;;;;;;4864225;29;20539;-85
2021/07/31 05:20:49;;;;;;;15.43;3.97;;;16.30;93.70;;;;;;4863409;29;20054;-86
2021/07/31 05:23:15;;;;;;;10.23;3.80;;;16.30;93.60;;;;;;4850163;29;20058;-86
2021/07/31 05:25:43;;;;;;;14.43;4.32;;;16.30;93.70;;;;;;4845582;29;20092;-85
2021/07/31 05:28:13;;;;;;;13.10;3.80;;;16.30;93.80;;;;;;4844438;29;20081;-86
2021/07/31 05:30:40;;;;;;;16.73;4.00;;;16.30;93.80;;;;;;4845118;29;20138;-86
2021/07/31 05:33:05;;;;;;;13.50;3.78;;;16.40;93.80;;;;;;4845168;29;20054;-86
2021/07/31 05:35:31;;;;;;;15.18;3.78;;;16.40;93.80;;;;;;4844682;29;20057;-87
2021/07/31 05:37:57;;;;;;;15.32;3.67;;;16.40;93.80;;;;;;4845170;29;20054;-86
2021/07/31 05:40:23;;;;;;;14.27;3.20;;;16.40;93.70;;;;;;4845171;29;20048;-87
2021/07/31 05:42:48;;;;;;;14.48;3.10;;;16.40;93.70;;;;;;4844411;29;20057;-89
2021/07/31 05:45:14;;;;;;;16.65;3.25;;;16.50;93.70;;;;;;4859144;29;20049;-91
2021/07/31 05:47:40;;;;;;;12.40;3.00;;;16.50;93.70;;;;;;4862943;29;20069;-88
2021/07/31 05:50:07;;;;;;;17.63;3.80;;;16.50;93.50;;;;;;4862193;29;20498;-87
2021/07/31 05:52:37;;;;;;;11.30;2.92;;;16.50;93.70;;;;;;4856650;29;20053;-87
2021/07/31 05:55:04;;;;;;;17.58;3.47;;;16.50;93.50;;;;;;4863232;29;20109;-89
2021/07/31 05:57:30;;;;;;;16.92;3.40;;;16.60;93.70;;;;;;4863303;29;20057;-87
2021/07/31 05:59:56;;;;;;;16.25;3.30;;;16.60;93.70;;;;;;4860457;29;20056;-88
2021/07/31 06:02:22;;;;;;;18.73;3.65;;;16.60;93.80;;;;;;4855417;29;20049;-86
2021/07/31 06:04:47;;;;;;;15.30;3.50;;;16.60;93.70;;;;;;4862784;29;20045;-85
2021/07/31 06:07:13;;;;;;;17.00;3.72;;;16.70;93.70;;;;;;4862854;29;20060;-88
2021/07/31 06:09:39;;;;;;;12.75;3.50;;;16.70;93.70;;;;;;4862990;29;20088;-92
2021/07/31 06:12:06;;;;;;;12.65;3.28;;;16.70;93.70;;;;;;4862536;29;20510;-88
2021/07/31 06:14:33;;;;;;;13.93;3.10;;;16.70;93.60;;;;;;4862822;29;20062;-90
2021/07/31 06:17:01;;;;;;;14.88;3.47;;;16.70;93.50;;;;;;4863567;29;20057;-87
2021/07/31 06:19:30;;;;;;;16.60;3.63;;;16.70;93.50;;;;;;4864028;29;20531;-86
2021/07/31 06:21:56;;;;;;;11.65;3.28;;;16.80;93.50;;;;;;4861291;29;20057;-86
2021/07/31 06:24:22;;;;;;;13.07;3.20;;;16.80;93.50;;;;;;4844861;29;20410;-87
2021/07/31 06:26:48;;;;;;;11.77;3.13;;;16.80;93.40;;;;;;4845039;29;20054;-89
2021/07/31 06:29:15;;;;;;;15.93;3.38;;;16.80;93.50;;;;;;4845677;29;20053;-89
2021/07/31 06:31:40;;;;;;;17.00;3.17;;;16.80;93.60;;;;;;4844336;29;20050;-86
2021/07/31 06:34:06;;;;;;;12.27;3.17;;;16.70;93.70;;;;;;4844988;29;20057;-90
2021/07/31 06:36:33;;;;;;;12.80;3.13;;;16.80;93.70;;;;;;4845191;29;20058;-85
2021/07/31 06:38:59;;;;;;;13.55;3.20;;;16.80;93.70;;;;;;4844635;29;20101;-90
2021/07/31 06:41:25;;;;;;;11.52;2.88;;;16.90;93.70;;;;;;4845882;29;20463;-93
2021/07/31 06:43:50;;;;;;;15.52;3.80;;;16.90;93.50;;;;;;4847544;29;20073;-92
2021/07/31 06:46:18;;;;;;;13.98;3.33;;;16.90;93.50;;;;;;4846143;29;20513;-89
2021/07/31 06:48:44;;;;;;;14.30;3.13;;;17.00;93.50;;;;;;4859813;29;20053;-90
2021/07/31 06:51:10;;;;;;;10.82;2.75;;;17.00;93.40;;;;;;4865987;29;20086;-92
2021/07/31 06:53:36;;;;;;;11.95;2.90;;;17.00;93.20;;;;;;4871862;29;20049;-90
2021/07/31 06:56:03;;;;;;;14.10;3.58;;;17.00;93.20;;;;;;4867027;29;20129;-89
2021/07/31 06:58:29;;;;;;;14.48;2.90;;;17.00;93.20;;;;;;4856879;29;20065;-92
2021/07/31 07:00:55;;;;;;;17.05;3.28;;;17.00;93.20;;;;;;4867271;29;20065;-92
2021/07/31 07:03:21;;;;;;;17.42;3.67;;;17.10;93.30;;;;;;4863777;29;20049;-88
2021/07/31 07:05:48;;;;;;;17.05;3.58;;;17.20;93.30;;;;;;4859880;29;20155;-91
2021/07/31 07:08:16;;;;;;;16.88;3.67;;;17.20;93.30;;;;;;4863922;29;20061;-90
2021/07/31 07:10:42;;;;;;;18.13;3.30;;;17.30;93.20;;;;;;4864797;29;20061;-93
2021/07/31 07:13:07;;;;;;;16.60;3.40;;;17.40;93.10;;;;;;4866152;29;20054;-91
2021/07/31 07:15:34;;;;;;;16.13;3.60;;;17.50;93.10;;;;;;4865539;29;20054;-90
2021/07/31 07:18:02;;;;;;;23.67;3.65;;;17.50;93.10;;;;;;4857636;29;20407;-90
2021/07/31 07:20:28;;;;;;;13.85;3.15;;;17.60;92.90;;;;;;4851093;29;20131;-88
2021/07/31 07:22:54;;;;;;;14.45;3.42;;;17.70;92.90;;;;;;4860547;29;20132;-84
2021/07/31 07:25:19;;;;;;;17.73;3.50;;;17.70;92.70;;;;;;4861703;29;20472;-85
2021/07/31 07:27:46;;;;;;;13.00;2.92;;;17.70;92.70;;;;;;4859910;29;20052;-87
2021/07/31 07:30:12;;;;;;;17.35;3.30;;;17.70;92.50;;;;;;4860832;29;20053;-86
2021/07/31 07:32:39;;;;;;;14.63;3.45;;;17.70;92.50;;;;;;4860274;29;20050;-85
2021/07/31 07:35:06;;;;;;;15.70;3.47;;;17.80;92.50;;;;;;4851280;29;20046;-84
2021/07/31 07:37:32;;;;;;;16.48;3.30;;;17.80;92.30;;;;;;4861212;29;20053;-87
2021/07/31 07:40:01;;;;;;;15.75;3.08;;;17.80;92.10;;;;;;4861183;29;20057;-85
2021/07/31 07:42:26;;;;;;;18.83;3.63;;;17.80;92.20;;;;;;4860154;29;20407;-87
2021/07/31 07:44:52;;;;;;;13.38;3.63;;;17.80;92.20;;;;;;4860822;29;20064;-87
2021/07/31 07:47:18;;;;;;;14.65;3.10;;;17.80;92.10;;;;;;4860429;29;20053;-86
2021/07/31 07:49:43;;;;;;;14.73;3.40;;;17.80;92.10;;;;;;4859642;29;20533;-84
2021/07/31 07:52:09;;;;;;;14.25;3.05;;;17.80;92.30;;;;;;4860796;29;20054;-84
2021/07/31 07:54:35;;;;;;;14.13;2.85;;;17.70;92.30;;;;;;4861177;29;20429;-85
2021/07/31 07:57:04;;;;;;;14.93;3.45;;;17.70;92.30;;;;;;4860144;29;20057;-84
2021/07/31 07:59:30;;;;;;;17.52;3.65;;;17.70;92.40;;;;;;4860986;29;20049;-84
2021/07/31 08:01:56;;;;;;;12.70;3.58;;;17.70;92.50;;;;;;4859898;29;20064;-84
2021/07/31 08:04:21;;;;;;;13.98;2.97;;;17.60;92.50;;;;;;4849934;29;20061;-84
2021/07/31 08:06:47;;;;;;;14.50;2.78;;;17.60;92.50;;;;;;4860716;29;20451;-86
2021/07/31 08:09:12;;;;;;;13.45;2.75;;;17.50;93.00;;;;;;4859503;29;20517;-85
2021/07/31 08:11:42;;;;;;;13.95;3.08;;;17.50;92.70;;;;;;4860961;29;20057;-83
2021/07/31 08:14:08;;;;;;;11.27;3.17;;;17.50;92.70;;;;;;4861028;29;20146;-87
2021/07/31 08:16:34;;;;;;;15.75;3.38;;;17.50;92.80;;;;;;4860515;29;20085;-86
2021/07/31 08:19:01;;;;;;;13.35;3.05;;;17.50;92.90;;;;;;4860677;29;20050;-87
2021/07/31 08:21:29;;;;;;;13.93;3.10;;;17.50;93.00;;;;;;4860052;29;20061;-85
2021/07/31 08:23:54;;;;;;;13.07;3.08;;;17.40;93.00;;;;;;4860111;29;20050;-87
2021/07/31 08:26:20;;;;;;;13.02;3.22;;;17.50;93.10;;;;;;4860923;29;20057;-86
2021/07/31 08:28:46;;;;;;;12.52;3.03;;;17.50;93.10;;;;;;4860777;29;20049;-85
2021/07/31 08:31:12;;;;;;;11.60;3.15;;;17.50;93.10;;;;;;4859237;29;20162;-84
2021/07/31 08:33:38;;;;;;;15.23;3.78;;;17.60;93.10;;;;;;4856298;29;20102;-83
2021/07/31 08:36:05;;;;;;;15.57;3.30;;;17.60;93.20;;;;;;4848807;29;20058;-81
2021/07/31 08:38:31;;;;;;;10.18;2.85;;;17.60;93.20;;;;;;4841535;29;20081;-83
2021/07/31 08:40:57;;;;;;;7.30;2.00;;;17.50;93.00;;;;;;4854919;29;20106;-86
2021/07/31 08:43:24;;;;;;;8.88;2.33;;;17.50;93.00;;;;;;4860555;29;20049;-84
2021/07/31 08:45:50;;;;;;;6.10;1.55;;;17.40;92.90;;;;;;4860014;29;20057;-87
2021/07/31 08:48:17;;;;;;;9.40;1.95;;;17.40;92.90;;;;;;4859845;29;20519;-90
2021/07/31 08:50:44;;;;;;;6.80;1.58;;;17.40;92.90;;;;;;4860002;29;20061;-86
2021/07/31 08:53:09;;;;;;;5.90;1.85;;;17.30;93.00;;;;;;4859107;29;20136;-89
2021/07/31 08:55:35;;;;;;;7.63;1.90;;;17.40;93.20;;;;;;4860673;29;20136;-87
2021/07/31 08:58:01;;;;;;;9.32;2.00;;;17.40;93.40;;;;;;4855725;29;20061;-89
2021/07/31 09:00:28;;;;;;;5.38;1.40;;;17.50;93.40;;;;;;4842709;29;20038;-89
2021/07/31 09:02:54;;;;;;;8.55;2.15;;;17.50;93.40;;;;;;4842277;29;20136;-90
2021/07/31 09:05:34;;;;;;;8.30;1.48;;;17.60;93.30;;;;;;4841473;29;20057;-91
2021/07/31 09:08:04;;;;;;;6.43;1.60;;;17.60;93.30;;;;;;4842010;29;20117;-91
2021/07/31 09:10:32;;;;;;;9.25;1.73;;;17.70;93.40;;;;;;4842267;29;20061;-86
2021/07/31 09:13:03;;;;;;;7.57;1.70;;;17.80;93.30;;;;;;4841582;29;20376;-89
2021/07/31 09:15:41;;;;;;;8.05;1.70;;;18.00;93.30;;;;;;4843247;29;20109;-93
2021/07/31 09:18:29;;;;;;;7.68;1.73;;;18.00;93.20;;;;;;4862006;29;20105;-92
2021/07/31 09:21:00;;;;;;;10.52;2.28;;;18.20;93.10;;;;;;4861325;29;20065;-92
2021/07/31 09:23:41;;;;;;;10.93;1.92;;;18.30;92.90;;;;;;4859953;29;20076;-94
2021/07/31 09:26:07;;;;;;;8.48;2.10;;;18.40;92.60;;;;;;4845799;29;20479;-92
2021/07/31 09:28:38;;;;;;;8.40;1.88;;;18.60;92.30;;;;;;4845327;29;20050;-94
2021/07/31 09:31:03;;;;;;;7.35;2.25;;;18.70;92.20;;;;;;4845491;29;20054;-94
2021/07/31 09:33:29;;;;;;;11.90;2.45;;;18.80;91.90;;;;;;4845652;29;20057;-92
2021/07/31 09:36:03;;;;;;;7.78;2.10;;;18.80;91.80;;;;;;4848485;29;20054;-93
2021/07/31 09:38:36;;;;;;;9.90;2.50;;;18.80;91.30;;;;;;4844888;29;20078;-89
2021/07/31 09:41:22;;;;;;;9.88;2.40;;;18.80;91.40;;;;;;4848515;29;20042;-93
2021/07/31 09:44:08;;;;;;;10.55;2.20;;;18.70;91.30;;;;;;4858882;29;20129;-89
2021/07/31 09:46:44;;;;;;;9.13;2.20;;;18.70;91.40;;;;;;4862319;29;20059;-88
2021/07/31 09:49:12;;;;;;;9.38;2.60;;;18.70;91.60;;;;;;4851658;29;20334;-89
2021/07/31 09:51:43;;;;;;;11.90;2.95;;;18.60;91.50;;;;;;4852482;29;20061;-90
2021/07/31 09:54:11;;;;;;;9.90;2.88;;;18.60;91.80;;;;;;4859048;29;20068;-88
2021/07/31 09:56:40;;;;;;;10.70;2.90;;;18.70;92.10;;;;;;4862269;29;20136;-88
2021/07/31 09:59:07;;;;;;;11.27;2.63;;;18.70;92.10;;;;;;4859254;29;20120;-90
2021/07/31 10:01:36;;;;;;;10.57;2.80;;;18.80;92.20;;;;;;4845521;29;20088;-87
2021/07/31 10:04:03;;;;;;;11.88;2.70;;;18.90;92.10;;;;;;4843745;29;20410;-87
2021/07/31 10:06:33;;;;;;;8.98;2.40;;;19.00;91.70;;;;;;4844609;29;20491;-88
2021/07/31 10:09:04;;;;;;;11.80;2.65;;;19.00;91.50;;;;;;4843759;29;20054;-88
2021/07/31 10:11:31;;;;;;;13.98;2.83;;;19.10;91.50;;;;;;4845206;29;20054;-87
2021/07/31 10:13:59;;;;;;;12.02;2.47;;;19.10;91.40;;;;;;4844935;29;20057;-86
2021/07/31 10:16:24;;;;;;;9.73;2.65;;;19.10;91.40;;;;;;4862150;29;20407;-87
2021/07/31 10:18:58;;;;;;;13.27;2.63;;;19.00;91.50;;;;;;4864855;29;20045;-89
2021/07/31 10:21:26;;;;;;;12.75;3.03;;;19.10;92.20;;;;;;4864273;29;20105;-89
2021/07/31 10:24:04;;;;;;;13.32;2.80;;;19.20;92.10;;;;;;4863639;29;20045;-89
2021/07/31 10:26:33;;;;;;;9.77;2.30;;;19.30;91.90;;;;;;4858211;29;20495;-90
2021/07/31 10:29:27;;;;;;;12.15;2.17;;;19.30;91.70;;;;;;4859044;29;20451;-87
2021/07/31 10:31:54;;;;;;;;;;;19.30;91.20;;;;;;4857543;29;20118;-88
2021/07/31 10:34:56;;;;;;;10.57;2.65;;;19.30;91.20;;;;;;4845207;29;19929;-89
2021/07/31 10:37:30;;;;;;;10.18;2.60;;;19.30;91.30;;;;;;4863344;29;20086;-88
2021/07/31 10:40:05;;;;;;;12.27;2.60;;;19.40;91.50;;;;;;4863561;29;20060;-89
2021/07/31 10:42:53;;;;;;;10.65;2.10;;;19.40;91.40;;;;;;4863343;29;20085;-91
2021/07/31 10:45:32;;;;;;;11.82;2.42;;;19.50;91.00;;;;;;4862508;29;20053;-91
2021/07/31 10:47:59;;;;;;;9.88;2.22;;;19.60;91.20;;;;;;4850691;29;20061;-91
2021/07/31 10:50:27;;;;;;;9.98;2.38;;;19.70;90.80;;;;;;4863442;29;20533;-89
2021/07/31 10:53:08;;;;;;;12.20;2.40;;;19.80;90.30;;;;;;4863294;29;20054;-89
2021/07/31 10:55:37;;;;;;;8.55;1.95;;;19.90;89.90;;;;;;4863998;29;20048;-91
2021/07/31 10:58:09;;;;;;;8.13;2.10;;;20.00;89.00;;;;;;4862226;29;20110;-92
2021/07/31 11:00:42;;;;;;;9.63;2.53;;;20.00;87.70;;;;;;4862842;29;20056;-89
2021/07/31 11:03:28;;;;;;;;;;;19.90;87.30;;;;;;4863365;29;20487;-89
2021/07/31 11:06:06;;;;;;;9.77;2.95;;;19.80;87.00;;;;;;4862465;29;19920;-88
2021/07/31 11:08:52;;;;;;;12.65;3.45;;;19.80;88.90;;;;;;4863490;29;20046;-91
2021/07/31 11:11:18;;;;;;;10.00;3.03;;;19.80;89.60;;;;;;4862719;29;20065;-90
2021/07/31 11:13:43;;;;;;;10.60;2.70;;;19.90;89.90;;;;;;4862475;29;20498;-90
2021/07/31 11:16:13;;;;;;;11.02;2.60;;;20.00;90.20;;;;;;4861870;29;20060;-89
2021/07/31 11:18:39;;;;;;;9.13;2.53;;;20.10;90.00;;;;;;4863200;29;20060;-88
2021/07/31 11:21:20;;;;;;;9.27;2.88;;;20.20;89.00;;;;;;4861948;29;20102;-92
2021/07/31 11:24:07;;;;;;;10.38;3.10;;;20.30;88.00;;;;;;4862700;29;20090;-87
2021/07/31 11:26:32;;;;;;;7.82;2.35;;;20.30;87.50;;;;;;4861702;29;20162;-87
2021/07/31 11:28:59;;;;;;;10.50;2.70;;;20.40;87.50;;;;;;4863240;29;20098;-89
2021/07/31 11:31:25;;;;;;;7.35;2.38;;;20.40;86.80;;;;;;4862993;29;20053;-87
2021/07/31 11:34:01;;;;;;;9.00;2.67;;;20.40;87.10;;;;;;4844379;29;20103;-88
2021/07/31 11:36:29;;;;;;;12.20;2.97;;;20.50;86.90;;;;;;4844096;29;20049;-88
2021/07/31 11:38:55;;;;;;;8.43;2.58;;;20.40;87.70;;;;;;4844053;29;20210;-89
2021/07/31 11:41:21;;;;;;;9.60;2.70;;;20.40;88.00;;;;;;4843028;29;20046;-89
2021/07/31 11:43:53;;;;;;;8.52;2.80;;;20.30;88.00;;;;;;4844113;29;20080;-87
2021/07/31 11:46:25;;;;;;;8.68;2.60;;;20.20;88.70;;;;;;4843914;29;20102;-88
2021/07/31 11:48:50;;;;;;;8.70;2.95;;;20.10;89.40;;;;;;4843482;29;20085;-88
2021/07/31 11:51:16;;;;;;;8.05;2.60;;;20.10;90.10;;;;;;4843202;29;20096;-87
2021/07/31 11:53:42;;;;;;;8.00;2.78;;;20.10;90.40;;;;;;4852047;29;20105;-90
2021/07/31 11:56:19;;;;;;;8.57;2.97;;;20.00;90.60;;;;;;4858954;29;20076;-89
2021/07/31 11:58:46;;;;;;;9.25;2.78;;;20.10;91.10;;;;;;4845725;29;20077;-87
2021/07/31 12:01:13;;;;;;;10.95;3.40;;;20.10;91.00;;;;;;4849330;29;20053;-87
2021/07/31 12:03:43;;;;;;;7.45;2.60;;;20.10;90.70;;;;;;4858707;29;20512;-84
2021/07/31 12:06:29;;;;;;;5.97;2.05;;;20.10;90.30;;;;;;4861224;29;20486;-87
2021/07/31 12:09:02;;;;;;;6.20;2.22;;;20.00;89.80;;;;;;4857027;29;20105;-85
2021/07/31 12:11:30;;;;;;;;;;;19.90;90.50;;;;;;4862371;29;20153;-88
2021/07/31 12:13:56;;;;;;;5.22;2.00;;;19.70;90.10;;;;;;4851927;29;19984;-85
2021/07/31 12:16:26;;;;;;;8.25;2.65;;;19.70;90.70;;;;;;4842110;29;20495;-87
2021/07/31 12:18:52;;;;;;;7.22;2.33;;;19.60;90.80;;;;;;4843475;29;20050;-89
2021/07/31 12:21:28;;;;;;;7.35;2.10;;;19.60;91.10;;;;;;4843567;29;20102;-90
2021/07/31 12:23:54;;;;;;;8.85;2.67;;;19.60;91.40;;;;;;4843319;29;20083;-86
2021/07/31 12:26:33;;;;;;;6.90;2.30;;;19.60;91.40;;;;;;4843111;29;20056;-88
2021/07/31 12:28:58;;;;;;;5.68;2.17;;;19.70;91.40;;;;;;4843133;29;20054;-88
2021/07/31 12:31:27;;;;;;;7.20;2.38;;;19.70;91.70;;;;;;4853714;29;20061;-90
2021/07/31 12:33:55;;;;;;;8.25;2.60;;;19.70;91.80;;;;;;4862109;29;20078;-90
2021/07/31 12:36:20;;;;;;;5.78;2.20;;;19.80;92.00;;;;;;4861120;29;20077;-88
2021/07/31 12:38:46;;;;;;;7.13;2.15;;;19.80;91.60;;;;;;4861638;29;20537;-89
2021/07/31 12:41:12;;;;;;;5.75;2.08;;;19.80;91.50;;;;;;4861555;29;20057;-88
2021/07/31 12:43:38;;;;;;;4.38;1.60;;;19.80;91.40;;;;;;4861099;29;20155;-87